sensor_id;sensor_type;location;lat;lon;timestamp;pressure;altitude;pressure_sealevel;temperature;humidity
53647;BME280;39550;52.230;5.194;2022-11-20T00:01:10;101298.47;;;4.39;69.34
53647;BME280;39550;52.230;5.194;2022-11-20T00:03:36;101297.63;;;4.39;69.66
53647;BME280;39550;52.230;5.194;2022-11-20T00:06:07;101296.59;;;4.35;69.89
53647;BME280;39550;52.230;5.194;2022-11-20T00:08:33;101295.81;;;4.36;69.48
53647;BME280;39550;52.230;5.194;2022-11-20T00:11:07;101298.31;;;4.35;69.24
53647;BME280;39550;52.230;5.194;2022-11-20T00:13:33;101298.34;;;4.36;69.32
53647;BME280;39550;52.230;5.194;2022-11-20T00:16:00;101305.97;;;4.35;69.83
53647;BME280;39550;52.230;5.194;2022-11-20T00:18:26;101302.34;;;4.30;69.34
53647;BME280;39550;52.230;5.194;2022-11-20T00:20:51;101302.50;;;4.34;69.25
53647;BME280;39550;52.230;5.194;2022-11-20T00:23:17;101296.50;;;4.32;69.83
53647;BME280;39550;52.230;5.194;2022-11-20T00:25:42;101289.59;;;4.30;69.87
53647;BME280;39550;52.230;5.194;2022-11-20T00:28:07;101290.44;;;4.30;69.72
53647;BME280;39550;52.230;5.194;2022-11-20T00:30:33;101287.88;;;4.30;69.52
53647;BME280;39550;52.230;5.194;2022-11-20T00:32:58;101295.53;;;4.30;69.54
53647;BME280;39550;52.230;5.194;2022-11-20T00:35:23;101293.78;;;4.29;69.86
53647;BME280;39550;52.230;5.194;2022-11-20T00:37:49;101294.63;;;4.28;69.13
53647;BME280;39550;52.230;5.194;2022-11-20T00:40:14;101289.53;;;4.28;69.38
53647;BME280;39550;52.230;5.194;2022-11-20T00:42:39;101289.38;;;4.25;69.14
53647;BME280;39550;52.230;5.194;2022-11-20T00:45:05;101292.00;;;4.26;69.68
53647;BME280;39550;52.230;5.194;2022-11-20T00:47:30;101297.91;;;4.25;69.45
53647;BME280;39550;52.230;5.194;2022-11-20T00:49:55;101291.00;;;4.23;69.52
53647;BME280;39550;52.230;5.194;2022-11-20T00:52:21;101287.66;;;4.24;69.28
53647;BME280;39550;52.230;5.194;2022-11-20T00:54:46;101279.16;;;4.25;69.38
53647;BME280;39550;52.230;5.194;2022-11-20T00:57:11;101280.00;;;4.24;69.13
53647;BME280;39550;52.230;5.194;2022-11-20T00:59:37;101279.00;;;4.20;69.28
53647;BME280;39550;52.230;5.194;2022-11-20T01:02:02;101286.69;;;4.22;69.09
53647;BME280;39550;52.230;5.194;2022-11-20T01:04:27;101281.53;;;4.20;69.51
53647;BME280;39550;52.230;5.194;2022-11-20T01:06:52;101275.59;;;4.20;69.24
53647;BME280;39550;52.230;5.194;2022-11-20T01:09:18;101277.19;;;4.18;69.29
53647;BME280;39550;52.230;5.194;2022-11-20T01:11:44;101274.56;;;4.16;69.30
53647;BME280;39550;52.230;5.194;2022-11-20T01:14:16;101277.19;;;4.18;69.05
53647;BME280;39550;52.230;5.194;2022-11-20T01:16:44;101275.47;;;4.17;69.60
53647;BME280;39550;52.230;5.194;2022-11-20T01:19:12;101273.72;;;4.16;69.00
53647;BME280;39550;52.230;5.194;2022-11-20T01:21:41;101273.72;;;4.16;69.09
53647;BME280;39550;52.230;5.194;2022-11-20T01:24:11;101268.59;;;4.16;69.18
53647;BME280;39550;52.230;5.194;2022-11-20T01:26:38;101273.66;;;4.14;69.00
53647;BME280;39550;52.230;5.194;2022-11-20T01:29:05;101269.34;;;4.13;69.19
53647;BME280;39550;52.230;5.194;2022-11-20T01:31:33;101272.75;;;4.14;69.66
53647;BME280;39550;52.230;5.194;2022-11-20T01:34:04;101272.81;;;4.15;69.57
53647;BME280;39550;52.230;5.194;2022-11-20T01:36:31;101261.75;;;4.15;69.13
53647;BME280;39550;52.230;5.194;2022-11-20T01:39:00;101273.59;;;4.13;68.96
53647;BME280;39550;52.230;5.194;2022-11-20T01:41:27;101264.13;;;4.10;69.51
53647;BME280;39550;52.230;5.194;2022-11-20T01:44:13;101263.25;;;4.09;69.10
53647;BME280;39550;52.230;5.194;2022-11-20T01:46:53;101262.38;;;4.09;69.02
53647;BME280;39550;52.230;5.194;2022-11-20T01:52:01;101255.41;;;4.05;68.83
53647;BME280;39550;52.230;5.194;2022-11-20T01:54:38;101259.78;;;4.07;69.32
53647;BME280;39550;52.230;5.194;2022-11-20T01:57:05;101252.91;;;4.06;69.00
53647;BME280;39550;52.230;5.194;2022-11-20T01:59:35;101248.56;;;4.04;68.75
53647;BME280;39550;52.230;5.194;2022-11-20T02:02:04;101249.47;;;4.04;69.42
53647;BME280;39550;52.230;5.194;2022-11-20T02:04:29;101254.56;;;4.04;68.93
53647;BME280;39550;52.230;5.194;2022-11-20T02:07:00;101257.00;;;4.03;69.07
53647;BME280;39550;52.230;5.194;2022-11-20T02:09:26;101254.41;;;4.01;69.38
53647;BME280;39550;52.230;5.194;2022-11-20T02:11:52;101253.53;;;4.01;69.58
53647;BME280;39550;52.230;5.194;2022-11-20T02:14:18;101249.19;;;3.98;69.04
53647;BME280;39550;52.230;5.194;2022-11-20T02:16:46;101254.41;;;4.01;69.34
53647;BME280;39550;52.230;5.194;2022-11-20T02:19:28;101240.63;;;3.96;69.01
53647;BME280;39550;52.230;5.194;2022-11-20T02:24:28;101238.19;;;3.99;68.97
53647;BME280;39550;52.230;5.194;2022-11-20T02:29:33;101238.13;;;3.98;68.95
53647;BME280;39550;52.230;5.194;2022-11-20T02:32:01;101237.22;;;3.97;68.98
53647;BME280;39550;52.230;5.194;2022-11-20T02:34:27;101229.41;;;3.92;68.77
53647;BME280;39550;52.230;5.194;2022-11-20T02:36:54;101232.00;;;3.94;69.02
53647;BME280;39550;52.230;5.194;2022-11-20T02:39:21;101230.25;;;3.93;68.73
53647;BME280;39550;52.230;5.194;2022-11-20T02:41:48;101233.75;;;3.95;69.03
53647;BME280;39550;52.230;5.194;2022-11-20T02:44:13;101229.47;;;3.94;68.85
53647;BME280;39550;52.230;5.194;2022-11-20T02:46:39;101229.22;;;3.88;68.61
53647;BME280;39550;52.230;5.194;2022-11-20T02:49:04;101228.50;;;3.90;68.67
53647;BME280;39550;52.230;5.194;2022-11-20T02:51:31;101229.28;;;3.89;68.49
53647;BME280;39550;52.230;5.194;2022-11-20T02:53:57;101225.72;;;3.86;69.10
53647;BME280;39550;52.230;5.194;2022-11-20T02:56:22;101226.69;;;3.88;68.52
53647;BME280;39550;52.230;5.194;2022-11-20T02:58:48;101227.47;;;3.87;68.45
53647;BME280;39550;52.230;5.194;2022-11-20T03:01:13;101219.81;;;3.87;68.29
53647;BME280;39550;52.230;5.194;2022-11-20T03:03:38;101228.28;;;3.86;68.89
53647;BME280;39550;52.230;5.194;2022-11-20T03:06:04;101217.97;;;3.83;68.82
53647;BME280;39550;52.230;5.194;2022-11-20T03:08:29;101214.63;;;3.84;69.07
53647;BME280;39550;52.230;5.194;2022-11-20T03:10:55;101203.34;;;3.79;68.54
53647;BME280;39550;52.230;5.194;2022-11-20T03:13:20;101206.97;;;3.84;68.66
53647;BME280;39550;52.230;5.194;2022-11-20T03:15:46;101190.38;;;3.72;68.95
53647;BME280;39550;52.230;5.194;2022-11-20T03:18:11;101202.53;;;3.80;68.77
53647;BME280;39550;52.230;5.194;2022-11-20T03:20:38;101196.63;;;3.81;69.23
53647;BME280;39550;52.230;5.194;2022-11-20T03:23:03;101194.06;;;3.81;68.71
53647;BME280;39550;52.230;5.194;2022-11-20T03:25:29;101196.63;;;3.81;68.52
53647;BME280;39550;52.230;5.194;2022-11-20T03:27:54;101179.91;;;3.66;68.69
53647;BME280;39550;52.230;5.194;2022-11-20T03:30:20;101190.59;;;3.79;68.55
53647;BME280;39550;52.230;5.194;2022-11-20T03:32:45;101192.19;;;3.77;68.75
53647;BME280;39550;52.230;5.194;2022-11-20T03:35:11;101193.09;;;3.77;68.69
53647;BME280;39550;52.230;5.194;2022-11-20T03:37:36;101185.25;;;3.72;68.49
53647;BME280;39550;52.230;5.194;2022-11-20T03:40:02;101190.47;;;3.75;68.46
53647;BME280;39550;52.230;5.194;2022-11-20T03:42:27;101193.81;;;3.74;68.57
53647;BME280;39550;52.230;5.194;2022-11-20T03:45:12;101198.94;;;3.74;68.45
53647;BME280;39550;52.230;5.194;2022-11-20T03:47:38;101192.97;;;3.74;68.42
53647;BME280;39550;52.230;5.194;2022-11-20T03:50:04;101186.91;;;3.72;68.71
53647;BME280;39550;52.230;5.194;2022-11-20T03:52:30;101180.16;;;3.72;68.49
53647;BME280;39550;52.230;5.194;2022-11-20T03:54:55;101176.66;;;3.70;68.43
53647;BME280;39550;52.230;5.194;2022-11-20T03:57:20;101176.66;;;3.70;67.99
53647;BME280;39550;52.230;5.194;2022-11-20T03:59:46;101182.63;;;3.71;68.69
53647;BME280;39550;52.230;5.194;2022-11-20T04:02:11;101179.16;;;3.69;68.19
53647;BME280;39550;52.230;5.194;2022-11-20T04:04:37;101186.00;;;3.70;68.55
53647;BME280;39550;52.230;5.194;2022-11-20T04:07:02;101179.16;;;3.69;68.64
53647;BME280;39550;52.230;5.194;2022-11-20T04:09:28;101167.22;;;3.68;68.06
53647;BME280;39550;52.230;5.194;2022-11-20T04:11:53;101162.84;;;3.65;68.35
53647;BME280;39550;52.230;5.194;2022-11-20T04:14:18;101161.13;;;3.64;68.25
53647;BME280;39550;52.230;5.194;2022-11-20T04:16:44;101157.75;;;3.65;68.21
53647;BME280;39550;52.230;5.194;2022-11-20T04:19:12;101151.69;;;3.62;68.83
53647;BME280;39550;52.230;5.194;2022-11-20T04:21:38;101156.84;;;3.63;68.64
53647;BME280;39550;52.230;5.194;2022-11-20T04:24:03;101153.50;;;3.64;67.96
53647;BME280;39550;52.230;5.194;2022-11-20T04:26:29;101149.06;;;3.60;68.53
53647;BME280;39550;52.230;5.194;2022-11-20T04:28:56;101141.34;;;3.58;68.46
53647;BME280;39550;52.230;5.194;2022-11-20T04:31:25;101155.88;;;3.61;68.25
53647;BME280;39550;52.230;5.194;2022-11-20T04:33:51;101147.31;;;3.59;68.40
53647;BME280;39550;52.230;5.194;2022-11-20T04:36:19;101148.94;;;3.57;68.29
53647;BME280;39550;52.230;5.194;2022-11-20T04:38:45;101155.78;;;3.58;68.67
53647;BME280;39550;52.230;5.194;2022-11-20T04:41:16;101157.41;;;3.56;68.12
53647;BME280;39550;52.230;5.194;2022-11-20T04:43:46;101152.31;;;3.56;68.31
53647;BME280;39550;52.230;5.194;2022-11-20T04:46:12;101153.16;;;3.56;68.16
53647;BME280;39550;52.230;5.194;2022-11-20T04:48:37;101152.31;;;3.56;68.25
53647;BME280;39550;52.230;5.194;2022-11-20T04:51:03;101152.22;;;3.54;67.96
53647;BME280;39550;52.230;5.194;2022-11-20T04:53:29;101150.56;;;3.55;68.40
53647;BME280;39550;52.230;5.194;2022-11-20T04:56:02;101153.91;;;3.54;68.01
53647;BME280;39550;52.230;5.194;2022-11-20T04:58:28;101141.72;;;3.47;68.45
53647;BME280;39550;52.230;5.194;2022-11-20T05:00:57;101145.34;;;3.52;68.44
53647;BME280;39550;52.230;5.194;2022-11-20T05:03:25;101145.19;;;3.49;68.47
53647;BME280;39550;52.230;5.194;2022-11-20T05:05:50;101137.53;;;3.49;68.21
53647;BME280;39550;52.230;5.194;2022-11-20T05:08:16;101146.94;;;3.50;68.36
53647;BME280;39550;52.230;5.194;2022-11-20T05:10:41;101141.84;;;3.50;67.78
53647;BME280;39550;52.230;5.194;2022-11-20T05:13:06;101119.59;;;3.46;68.29
53647;BME280;39550;52.230;5.194;2022-11-20T05:15:32;101116.25;;;3.47;67.89
53647;BME280;39550;52.230;5.194;2022-11-20T05:17:57;101117.09;;;3.47;67.58
53647;BME280;39550;52.230;5.194;2022-11-20T05:20:22;101113.63;;;3.45;68.15
53647;BME280;39550;52.230;5.194;2022-11-20T05:22:48;101111.03;;;3.44;68.04
53647;BME280;39550;52.230;5.194;2022-11-20T05:25:13;101106.78;;;3.44;68.08
53647;BME280;39550;52.230;5.194;2022-11-20T05:27:38;101116.97;;;3.44;67.91
53647;BME280;39550;52.230;5.194;2022-11-20T05:30:05;101104.19;;;3.43;67.99
53647;BME280;39550;52.230;5.194;2022-11-20T05:32:30;101102.44;;;3.41;67.92
53647;BME280;39550;52.230;5.194;2022-11-20T05:34:56;101108.41;;;3.42;68.09
53647;BME280;39550;52.230;5.194;2022-11-20T05:37:21;101105.00;;;3.41;68.31
53647;BME280;39550;52.230;5.194;2022-11-20T05:39:46;101106.69;;;3.41;67.79
53647;BME280;39550;52.230;5.194;2022-11-20T05:42:12;101106.69;;;3.41;67.86
53647;BME280;39550;52.230;5.194;2022-11-20T05:44:56;101110.75;;;3.37;67.72
53647;BME280;39550;52.230;5.194;2022-11-20T05:47:22;101110.81;;;3.39;67.89
53647;BME280;39550;52.230;5.194;2022-11-20T05:49:47;101114.09;;;3.36;67.72
53647;BME280;39550;52.230;5.194;2022-11-20T05:52:13;101122.56;;;3.35;67.43
53647;BME280;39550;52.230;5.194;2022-11-20T05:54:38;101127.63;;;3.34;67.87
53647;BME280;39550;52.230;5.194;2022-11-20T05:57:03;101126.84;;;3.36;67.97
53647;BME280;39550;52.230;5.194;2022-11-20T05:59:29;101129.47;;;3.38;67.66
53647;BME280;39550;52.230;5.194;2022-11-20T06:01:54;101142.13;;;3.36;67.59
53647;BME280;39550;52.230;5.194;2022-11-20T06:04:20;101139.47;;;3.33;67.83
53647;BME280;39550;52.230;5.194;2022-11-20T06:06:45;101148.06;;;3.35;67.53
53647;BME280;39550;52.230;5.194;2022-11-20T06:09:10;101139.47;;;3.33;67.56
53647;BME280;39550;52.230;5.194;2022-11-20T06:11:36;101138.59;;;3.33;67.69
53647;BME280;39550;52.230;5.194;2022-11-20T06:14:01;101137.59;;;3.29;68.02
53647;BME280;39550;52.230;5.194;2022-11-20T06:16:26;101137.72;;;3.32;67.70
53647;BME280;39550;52.230;5.194;2022-11-20T06:18:52;101132.56;;;3.31;67.49
53647;BME280;39550;52.230;5.194;2022-11-20T06:21:19;101142.69;;;3.29;67.30
53647;BME280;39550;52.230;5.194;2022-11-20T06:23:45;101137.59;;;3.29;67.51
53647;BME280;39550;52.230;5.194;2022-11-20T06:26:18;101132.50;;;3.29;67.66
53647;BME280;39550;52.230;5.194;2022-11-20T06:28:44;101131.63;;;3.29;67.73
53647;BME280;39550;52.230;5.194;2022-11-20T06:31:11;101134.97;;;3.28;67.77
53647;BME280;39550;52.230;5.194;2022-11-20T06:33:37;101132.38;;;3.26;67.59
53647;BME280;39550;52.230;5.194;2022-11-20T06:36:03;101142.56;;;3.26;67.56
53647;BME280;39550;52.230;5.194;2022-11-20T06:38:28;101134.00;;;3.24;67.59
53647;BME280;39550;52.230;5.194;2022-11-20T06:40:54;101138.31;;;3.27;67.57
53647;BME280;39550;52.230;5.194;2022-11-20T06:43:21;101135.66;;;3.23;67.55
53647;BME280;39550;52.230;5.194;2022-11-20T06:45:51;101134.66;;;3.20;67.92
53647;BME280;39550;52.230;5.194;2022-11-20T06:48:17;101133.84;;;3.21;67.59
53647;BME280;39550;52.230;5.194;2022-11-20T06:50:42;101125.41;;;3.22;67.54
53647;BME280;39550;52.230;5.194;2022-11-20T06:53:07;101122.78;;;3.20;67.66
53647;BME280;39550;52.230;5.194;2022-11-20T06:55:32;101113.47;;;3.21;67.52
53647;BME280;39550;52.230;5.194;2022-11-20T06:57:58;101099.53;;;3.13;67.37
53647;BME280;39550;52.230;5.194;2022-11-20T07:00:23;101114.19;;;3.18;67.49
53647;BME280;39550;52.230;5.194;2022-11-20T07:02:49;101109.88;;;3.16;67.76
53647;BME280;39550;52.230;5.194;2022-11-20T07:05:15;101108.25;;;3.18;67.71
53647;BME280;39550;52.230;5.194;2022-11-20T07:07:40;101112.50;;;3.17;67.38
53647;BME280;39550;52.230;5.194;2022-11-20T07:10:06;101109.88;;;3.16;67.26
53647;BME280;39550;52.230;5.194;2022-11-20T07:12:31;101114.13;;;3.17;67.37
53647;BME280;39550;52.230;5.194;2022-11-20T07:14:56;101112.44;;;3.16;67.40
53647;BME280;39550;52.230;5.194;2022-11-20T07:17:22;101106.50;;;3.17;67.56
53647;BME280;39550;52.230;5.194;2022-11-20T07:19:47;101099.69;;;3.16;67.42
53647;BME280;39550;52.230;5.194;2022-11-20T07:22:12;101099.53;;;3.13;67.21
53647;BME280;39550;52.230;5.194;2022-11-20T07:24:38;101106.38;;;3.14;67.17
53647;BME280;39550;52.230;5.194;2022-11-20T07:27:04;101103.78;;;3.12;67.64
53647;BME280;39550;52.230;5.194;2022-11-20T07:29:29;101092.72;;;3.12;67.55
53647;BME280;39550;52.230;5.194;2022-11-20T07:31:55;101083.41;;;3.12;67.17
53647;BME280;39550;52.230;5.194;2022-11-20T07:34:21;101099.41;;;3.10;67.41
53647;BME280;39550;52.230;5.194;2022-11-20T07:36:47;101099.41;;;3.10;67.38
53647;BME280;39550;52.230;5.194;2022-11-20T07:39:12;101097.81;;;3.12;67.33
53647;BME280;39550;52.230;5.194;2022-11-20T07:41:37;101099.53;;;3.13;67.31
53647;BME280;39550;52.230;5.194;2022-11-20T07:44:03;101101.16;;;3.11;67.21
53647;BME280;39550;52.230;5.194;2022-11-20T07:46:28;101101.16;;;3.11;67.29
53647;BME280;39550;52.230;5.194;2022-11-20T07:48:53;101105.53;;;3.13;67.11
53647;BME280;39550;52.230;5.194;2022-11-20T07:51:19;101111.41;;;3.12;67.35
53647;BME280;39550;52.230;5.194;2022-11-20T07:53:44;101110.56;;;3.12;67.16
53647;BME280;39550;52.230;5.194;2022-11-20T07:56:09;101103.72;;;3.11;67.31
53647;BME280;39550;52.230;5.194;2022-11-20T07:58:35;101100.28;;;3.10;67.24
53647;BME280;39550;52.230;5.194;2022-11-20T08:01:05;101098.56;;;3.09;67.43
53647;BME280;39550;52.230;5.194;2022-11-20T08:03:31;101097.66;;;3.09;67.33
53647;BME280;39550;52.230;5.194;2022-11-20T08:06:00;101097.81;;;3.12;67.31
53647;BME280;39550;52.230;5.194;2022-11-20T08:08:26;101097.72;;;3.10;67.15
53647;BME280;39550;52.230;5.194;2022-11-20T08:10:52;101096.06;;;3.11;67.29
53647;BME280;39550;52.230;5.194;2022-11-20T08:13:17;101089.22;;;3.10;67.54
53647;BME280;39550;52.230;5.194;2022-11-20T08:16:01;101085.00;;;3.10;67.17
53647;BME280;39550;52.230;5.194;2022-11-20T08:18:26;101084.13;;;3.10;67.25
53647;BME280;39550;52.230;5.194;2022-11-20T08:20:52;101070.50;;;3.08;67.12
53647;BME280;39550;52.230;5.194;2022-11-20T08:23:17;101070.50;;;3.08;67.21
53647;BME280;39550;52.230;5.194;2022-11-20T08:25:42;101081.53;;;3.08;67.52
53647;BME280;39550;52.230;5.194;2022-11-20T08:28:09;101077.28;;;3.09;67.43
53647;BME280;39550;52.230;5.194;2022-11-20T08:30:35;101081.53;;;3.08;67.39
53647;BME280;39550;52.230;5.194;2022-11-20T08:33:03;101080.78;;;3.11;67.32
53647;BME280;39550;52.230;5.194;2022-11-20T08:35:37;101080.78;;;3.11;67.24
53647;BME280;39550;52.230;5.194;2022-11-20T08:38:06;101077.28;;;3.09;67.20
53647;BME280;39550;52.230;5.194;2022-11-20T08:40:32;101088.44;;;3.11;67.42
53647;BME280;39550;52.230;5.194;2022-11-20T08:42:57;101084.19;;;3.11;67.78
53647;BME280;39550;52.230;5.194;2022-11-20T08:45:23;101079.91;;;3.10;67.70
53647;BME280;39550;52.230;5.194;2022-11-20T08:47:48;101075.72;;;3.11;67.97
53647;BME280;39550;52.230;5.194;2022-11-20T08:50:15;101079.03;;;3.10;67.83
53647;BME280;39550;52.230;5.194;2022-11-20T08:52:41;101070.34;;;3.04;67.75
53647;BME280;39550;52.230;5.194;2022-11-20T08:55:07;101079.91;;;3.10;67.70
53647;BME280;39550;52.230;5.194;2022-11-20T08:57:36;101084.25;;;3.13;67.82
53647;BME280;39550;52.230;5.194;2022-11-20T09:00:04;101091.09;;;3.14;67.60
53647;BME280;39550;52.230;5.194;2022-11-20T09:02:29;101091.91;;;3.13;67.59
53647;BME280;39550;52.230;5.194;2022-11-20T09:04:57;101084.25;;;3.13;67.58
53647;BME280;39550;52.230;5.194;2022-11-20T09:07:23;101082.53;;;3.12;67.44
53647;BME280;39550;52.230;5.194;2022-11-20T09:09:48;101079.16;;;3.13;67.63
53647;BME280;39550;52.230;5.194;2022-11-20T09:12:14;101075.72;;;3.11;67.33
53647;BME280;39550;52.230;5.194;2022-11-20T09:14:39;101072.47;;;3.15;67.37
53647;BME280;39550;52.230;5.194;2022-11-20T09:17:04;101068.97;;;3.13;67.90
53647;BME280;39550;52.230;5.194;2022-11-20T09:19:30;101059.69;;;3.13;68.13
53647;BME280;39550;52.230;5.194;2022-11-20T09:21:55;101058.78;;;3.13;67.72
53647;BME280;39550;52.230;5.194;2022-11-20T09:24:20;101052.91;;;3.14;67.67
53647;BME280;39550;52.230;5.194;2022-11-20T09:26:46;101047.03;;;3.15;67.79
53647;BME280;39550;52.230;5.194;2022-11-20T09:29:13;101039.31;;;3.13;67.93
53647;BME280;39550;52.230;5.194;2022-11-20T09:31:38;101025.69;;;3.13;67.45
53647;BME280;39550;52.230;5.194;2022-11-20T09:34:04;101009.22;;;3.04;68.00
53647;BME280;39550;52.230;5.194;2022-11-20T09:36:29;101030.09;;;3.17;67.80
53647;BME280;39550;52.230;5.194;2022-11-20T09:38:54;101015.50;;;3.13;68.03
53647;BME280;39550;52.230;5.194;2022-11-20T09:47:05;101019.13;;;3.18;68.42
53647;BME280;39550;52.230;5.194;2022-11-20T09:54:52;101014.81;;;3.17;68.04
53647;BME280;39550;52.230;5.194;2022-11-20T09:57:21;101014.97;;;3.20;67.94
53647;BME280;39550;52.230;5.194;2022-11-20T09:59:58;101004.78;;;3.20;68.10
53647;BME280;39550;52.230;5.194;2022-11-20T10:02:39;100996.31;;;3.21;68.18
53647;BME280;39550;52.230;5.194;2022-11-20T10:05:21;100994.72;;;3.23;68.17
53647;BME280;39550;52.230;5.194;2022-11-20T10:10:41;100993.84;;;3.22;67.84
53647;BME280;39550;52.230;5.194;2022-11-20T10:16:00;100982.78;;;3.22;68.53
53647;BME280;39550;52.230;5.194;2022-11-20T10:29:19;100966.88;;;3.28;68.16
53647;BME280;39550;52.230;5.194;2022-11-20T10:31:52;100963.53;;;3.29;68.17
53647;BME280;39550;52.230;5.194;2022-11-20T10:37:16;100944.84;;;3.28;68.47
53647;BME280;39550;52.230;5.194;2022-11-20T10:40:18;100915.94;;;3.28;68.69
53647;BME280;39550;52.230;5.194;2022-11-20T10:43:10;100918.53;;;3.29;68.49
53647;BME280;39550;52.230;5.194;2022-11-20T10:45:52;100921.94;;;3.28;68.63
53647;BME280;39550;52.230;5.194;2022-11-20T10:48:25;100927.94;;;3.30;68.44
53647;BME280;39550;52.230;5.194;2022-11-20T10:50:55;100922.03;;;3.31;68.44
53647;BME280;39550;52.230;5.194;2022-11-20T10:59:35;100906.66;;;3.28;68.69
53647;BME280;39550;52.230;5.194;2022-11-20T11:04:47;100900.59;;;3.26;68.78
53647;BME280;39550;52.230;5.194;2022-11-20T11:07:30;100892.97;;;3.26;68.74
53647;BME280;39550;52.230;5.194;2022-11-20T11:09:59;100887.03;;;3.26;69.20
53647;BME280;39550;52.230;5.194;2022-11-20T11:12:26;100879.44;;;3.27;69.11
53647;BME280;39550;52.230;5.194;2022-11-20T11:14:54;100878.53;;;3.27;68.88
53647;BME280;39550;52.230;5.194;2022-11-20T11:19:45;100870.03;;;3.26;69.15
53647;BME280;39550;52.230;5.194;2022-11-20T11:22:16;100873.53;;;3.28;69.15
53647;BME280;39550;52.230;5.194;2022-11-20T11:24:52;100859.06;;;3.27;68.83
53647;BME280;39550;52.230;5.194;2022-11-20T11:27:18;100857.31;;;3.26;69.10
53647;BME280;39550;52.230;5.194;2022-11-20T11:29:44;100857.31;;;3.26;69.38
53647;BME280;39550;52.230;5.194;2022-11-20T11:32:17;100850.47;;;3.25;69.52
53647;BME280;39550;52.230;5.194;2022-11-20T11:34:42;100840.28;;;3.25;69.36
53647;BME280;39550;52.230;5.194;2022-11-20T11:37:19;100840.28;;;3.25;69.20
53647;BME280;39550;52.230;5.194;2022-11-20T11:39:47;100833.47;;;3.24;69.55
53647;BME280;39550;52.230;5.194;2022-11-20T11:42:17;100827.44;;;3.22;69.65
53647;BME280;39550;52.230;5.194;2022-11-20T11:44:44;100822.41;;;3.23;69.55
53647;BME280;39550;52.230;5.194;2022-11-20T11:55:29;100803.03;;;3.27;69.31
53647;BME280;39550;52.230;5.194;2022-11-20T11:58:04;100801.28;;;3.26;69.66
53647;BME280;39550;52.230;5.194;2022-11-20T12:00:35;100779.81;;;3.19;69.92
53647;BME280;39550;52.230;5.194;2022-11-20T12:03:42;100789.34;;;3.25;70.03
53647;BME280;39550;52.230;5.194;2022-11-20T12:06:09;100793.59;;;3.24;69.95
53647;BME280;39550;52.230;5.194;2022-11-20T12:08:59;100777.97;;;3.15;69.74
53647;BME280;39550;52.230;5.194;2022-11-20T12:14:07;100775.81;;;3.26;69.71
53647;BME280;39550;52.230;5.194;2022-11-20T12:16:39;100782.66;;;3.27;69.91
53647;BME280;39550;52.230;5.194;2022-11-20T12:19:11;100771.53;;;3.25;70.12
53647;BME280;39550;52.230;5.194;2022-11-20T12:29:49;100753.09;;;3.32;70.48
53647;BME280;39550;52.230;5.194;2022-11-20T12:35:10;100751.41;;;3.31;70.60
53647;BME280;39550;52.230;5.194;2022-11-20T12:38:01;100748.84;;;3.31;70.60
53647;BME280;39550;52.230;5.194;2022-11-20T12:46:31;100722.53;;;3.32;70.56
53647;BME280;39550;52.230;5.194;2022-11-20T12:49:15;100716.59;;;3.32;70.25
53647;BME280;39550;52.230;5.194;2022-11-20T12:52:00;100709.81;;;3.32;70.67
53647;BME280;39550;52.230;5.194;2022-11-20T12:57:49;100678.44;;;3.33;71.12
53647;BME280;39550;52.230;5.194;2022-11-20T13:00:20;100682.72;;;3.34;70.49
53647;BME280;39550;52.230;5.194;2022-11-20T13:02:58;100673.34;;;3.33;70.86
53647;BME280;39550;52.230;5.194;2022-11-20T13:05:55;100667.44;;;3.34;70.58
53647;BME280;39550;52.230;5.194;2022-11-20T13:08:35;100659.66;;;3.30;70.89
53647;BME280;39550;52.230;5.194;2022-11-20T13:11:07;100660.50;;;3.30;70.84
53647;BME280;39550;52.230;5.194;2022-11-20T13:16:44;100673.34;;;3.33;71.38
53647;BME280;39550;52.230;5.194;2022-11-20T13:19:15;100673.41;;;3.35;71.10
53647;BME280;39550;52.230;5.194;2022-11-20T13:21:48;100659.00;;;3.35;71.19
53647;BME280;39550;52.230;5.194;2022-11-20T13:29:34;100648.69;;;3.32;71.19
53647;BME280;39550;52.230;5.194;2022-11-20T13:32:06;100641.13;;;3.34;71.33
53647;BME280;39550;52.230;5.194;2022-11-20T13:34:38;100642.78;;;3.33;71.41
53647;BME280;39550;52.230;5.194;2022-11-20T13:37:04;100648.81;;;3.35;71.34
53647;BME280;39550;52.230;5.194;2022-11-20T13:39:32;100655.63;;;3.36;71.66
53647;BME280;39550;52.230;5.194;2022-11-20T13:44:42;100636.13;;;3.37;71.48
53647;BME280;39550;52.230;5.194;2022-11-20T13:47:26;100619.97;;;3.36;71.53
53647;BME280;39550;52.230;5.194;2022-11-20T13:49:52;100617.38;;;3.35;71.69
53647;BME280;39550;52.230;5.194;2022-11-20T13:55:18;100602.97;;;3.35;71.60
53647;BME280;39550;52.230;5.194;2022-11-20T14:00:21;100595.41;;;3.38;71.63
53647;BME280;39550;52.230;5.194;2022-11-20T14:03:01;100589.53;;;3.39;71.59
53647;BME280;39550;52.230;5.194;2022-11-20T14:05:32;100602.22;;;3.38;71.65
53647;BME280;39550;52.230;5.194;2022-11-20T14:08:06;100598.06;;;3.41;71.27
53647;BME280;39550;52.230;5.194;2022-11-20T14:10:34;100591.13;;;3.37;71.80
53647;BME280;39550;52.230;5.194;2022-11-20T14:13:11;100571.66;;;3.38;71.97
53647;BME280;39550;52.230;5.194;2022-11-20T14:15:40;100567.44;;;3.40;71.89
53647;BME280;39550;52.230;5.194;2022-11-20T14:18:25;100555.56;;;3.40;71.75
53647;BME280;39550;52.230;5.194;2022-11-20T14:20:50;100543.75;;;3.43;71.58
53647;BME280;39550;52.230;5.194;2022-11-20T14:23:26;100526.78;;;3.43;72.14
53647;BME280;39550;52.230;5.194;2022-11-20T14:25:52;100525.00;;;3.40;72.18
53647;BME280;39550;52.230;5.194;2022-11-20T14:28:28;100531.84;;;3.41;72.20
53647;BME280;39550;52.230;5.194;2022-11-20T14:30:55;100553.94;;;3.43;72.03
53647;BME280;39550;52.230;5.194;2022-11-20T14:33:21;100558.19;;;3.42;72.28
53647;BME280;39550;52.230;5.194;2022-11-20T14:35:54;100549.63;;;3.40;72.17
53647;BME280;39550;52.230;5.194;2022-11-20T14:38:28;100536.13;;;3.43;71.79
53647;BME280;39550;52.230;5.194;2022-11-20T14:40:54;100520.03;;;3.44;72.05
53647;BME280;39550;52.230;5.194;2022-11-20T14:43:23;100516.56;;;3.41;71.79